createdAt,value
2018-07-06T00:00:35.941Z,0
2018-07-06T00:01:17.303Z,0
2018-07-06T00:01:57.813Z,0
2018-07-06T00:02:38.278Z,0
2018-07-06T00:03:18.825Z,0
2018-07-06T00:03:59.306Z,0
2018-07-06T00:04:39.807Z,0
2018-07-06T00:05:20.315Z,0
2018-07-06T00:06:01.428Z,0
2018-07-06T00:06:41.932Z,0
2018-07-06T00:07:22.435Z,0
2018-07-06T00:08:02.912Z,0
2018-07-06T00:08:43.578Z,0
2018-07-06T00:09:24.098Z,0
2018-07-06T00:10:04.620Z,0
2018-07-06T00:10:45.940Z,0
2018-07-06T00:11:26.430Z,0
2018-07-06T00:12:06.962Z,0
2018-07-06T00:12:47.430Z,0
2018-07-06T00:13:27.906Z,0
2018-07-06T00:14:08.477Z,0
2018-07-06T00:14:48.999Z,0
2018-07-06T00:15:29.485Z,0
2018-07-06T00:16:10.555Z,0
2018-07-06T00:16:52.638Z,0
2018-07-06T00:17:33.121Z,0
2018-07-06T00:18:13.630Z,0
2018-07-06T00:18:54.934Z,0
2018-07-06T00:19:35.481Z,0
2018-07-06T00:20:15.944Z,0
2018-07-06T00:20:56.408Z,0
2018-07-06T00:21:36.892Z,0
2018-07-06T00:22:17.415Z,0
2018-07-06T00:22:57.896Z,0
2018-07-06T00:23:38.406Z,0
2018-07-06T00:24:18.851Z,0
2018-07-06T00:24:59.955Z,0
2018-07-06T00:25:41.296Z,0
2018-07-06T00:26:21.821Z,0
2018-07-06T00:27:02.341Z,0
2018-07-06T00:27:43.533Z,0
2018-07-06T00:28:24.014Z,0
2018-07-06T00:29:04.529Z,0
2018-07-06T00:29:45.792Z,0
2018-07-06T00:30:26.292Z,0
2018-07-06T00:31:06.813Z,0
2018-07-06T00:31:48.141Z,0
2018-07-06T00:32:28.627Z,0
2018-07-06T00:33:10.701Z,0
2018-07-06T00:33:51.259Z,0
2018-07-06T00:34:32.446Z,0
2018-07-06T00:35:12.950Z,0
2018-07-06T00:35:53.417Z,0
2018-07-06T00:36:35.426Z,0
2018-07-06T00:37:15.952Z,0
2018-07-06T00:37:57.022Z,0
2018-07-06T00:38:37.514Z,0
2018-07-06T00:39:18.003Z,0
2018-07-06T00:39:59.054Z,0
2018-07-06T00:40:39.545Z,0
2018-07-06T00:41:20.034Z,0
2018-07-06T00:42:00.571Z,0
2018-07-06T00:42:41.638Z,0
2018-07-06T00:43:22.733Z,0
2018-07-06T00:44:03.406Z,0
2018-07-06T00:44:44.336Z,0
2018-07-06T00:45:24.805Z,0
2018-07-06T00:46:05.311Z,0
2018-07-06T00:46:45.847Z,0
2018-07-06T00:47:26.331Z,0
2018-07-06T00:48:06.800Z,0
2018-07-06T00:48:48.287Z,0
2018-07-06T00:49:28.738Z,0
2018-07-06T00:50:09.185Z,0
2018-07-06T00:50:49.711Z,0
2018-07-06T00:51:30.175Z,0
2018-07-06T00:52:10.675Z,0
2018-07-06T00:52:52.817Z,0
2018-07-06T00:53:33.311Z,0
2018-07-06T00:54:14.540Z,0
2018-07-06T00:54:55.090Z,0
2018-07-06T00:55:36.757Z,0
2018-07-06T00:56:17.234Z,0
2018-07-06T00:56:58.572Z,0
2018-07-06T00:57:39.081Z,0
2018-07-06T00:58:19.574Z,0
2018-07-06T00:59:00.069Z,0
2018-07-06T00:59:41.254Z,0
2018-07-06T01:00:21.730Z,0
2018-07-06T01:01:02.291Z,0
2018-07-06T01:01:42.897Z,0
2018-07-06T01:02:23.250Z,0
2018-07-06T01:03:03.772Z,0
2018-07-06T01:03:44.250Z,0
2018-07-06T01:04:24.720Z,0
2018-07-06T01:05:05.261Z,0
2018-07-06T01:05:47.541Z,0
2018-07-06T01:06:28.032Z,0
2018-07-06T01:07:08.536Z,0
2018-07-06T01:07:49.041Z,0
2018-07-06T01:08:29.482Z,0
2018-07-06T01:09:10.004Z,0
2018-07-06T01:09:50.508Z,0
2018-07-06T01:10:31.990Z,0
2018-07-06T01:11:14.156Z,0
2018-07-06T01:11:53.769Z,0
2018-07-06T01:12:34.963Z,0
2018-07-06T01:13:15.488Z,0
2018-07-06T01:13:55.980Z,0
2018-07-06T01:14:37.331Z,0
2018-07-06T01:15:17.850Z,0
2018-07-06T01:15:59.247Z,0
2018-07-06T01:16:39.744Z,0
2018-07-06T01:17:20.227Z,0
2018-07-06T01:18:00.717Z,0
2018-07-06T01:18:41.282Z,0
2018-07-06T01:19:21.724Z,0
2018-07-06T01:20:02.218Z,0
2018-07-06T01:20:42.733Z,0
2018-07-06T01:21:23.228Z,0
2018-07-06T01:22:04.328Z,0
2018-07-06T01:22:44.819Z,0
2018-07-06T01:23:25.346Z,0
2018-07-06T01:24:05.838Z,0
2018-07-06T01:24:46.362Z,0
2018-07-06T01:25:26.835Z,0
2018-07-06T01:26:07.333Z,0
2018-07-06T01:26:47.819Z,0
2018-07-06T01:27:28.274Z,0
2018-07-06T01:28:08.780Z,0
2018-07-06T01:28:50.059Z,0
2018-07-06T01:29:30.587Z,0
2018-07-06T01:30:11.093Z,0
2018-07-06T01:30:51.564Z,0
2018-07-06T01:31:32.601Z,0
2018-07-06T01:32:13.042Z,0
2018-07-06T01:32:53.552Z,0
2018-07-06T01:33:34.051Z,0
2018-07-06T01:34:14.541Z,0
2018-07-06T01:34:55.015Z,0
2018-07-06T01:35:37.846Z,0
2018-07-06T01:36:18.306Z,0
2018-07-06T01:36:58.811Z,0
2018-07-06T01:37:39.317Z,0
2018-07-06T01:38:19.863Z,0
2018-07-06T01:39:00.852Z,0
2018-07-06T01:39:42.864Z,0
2018-07-06T01:40:23.339Z,0
2018-07-06T01:41:05.700Z,0
2018-07-06T01:41:46.200Z,0
2018-07-06T01:42:26.720Z,0
2018-07-06T01:43:07.241Z,0
2018-07-06T01:43:47.771Z,0
2018-07-06T01:44:28.213Z,0
2018-07-06T01:45:08.710Z,0
2018-07-06T01:45:49.170Z,0
2018-07-06T01:46:29.694Z,0
2018-07-06T01:47:10.221Z,0
2018-07-06T01:47:50.711Z,0
2018-07-06T01:48:31.174Z,0
2018-07-06T01:49:11.685Z,0
2018-07-06T01:49:52.168Z,0
2018-07-06T01:50:32.704Z,0
2018-07-06T01:51:13.169Z,0
2018-07-06T01:51:54.545Z,0
2018-07-06T01:52:35.051Z,0
2018-07-06T01:53:15.570Z,0
2018-07-06T01:53:56.080Z,0
2018-07-06T01:54:36.562Z,0
2018-07-06T01:55:17.059Z,0
2018-07-06T01:55:57.593Z,0
2018-07-06T01:56:39.028Z,0
2018-07-06T01:57:19.462Z,0
2018-07-06T01:57:59.993Z,0
2018-07-06T01:58:40.481Z,0
2018-07-06T01:59:20.903Z,0
2018-07-06T02:00:01.430Z,0
2018-07-06T02:00:41.944Z,0
2018-07-06T02:01:23.362Z,0
2018-07-06T02:02:03.844Z,0
2018-07-06T02:02:44.388Z,0
2018-07-06T02:03:24.824Z,0
2018-07-06T02:04:05.312Z,0
2018-07-06T02:04:45.870Z,0
2018-07-06T02:05:26.379Z,0
2018-07-06T02:06:06.813Z,0
2018-07-06T02:06:47.320Z,0
2018-07-06T02:07:28.587Z,0
2018-07-06T02:08:09.055Z,0
2018-07-06T02:08:49.553Z,0
2018-07-06T02:09:30.082Z,0
2018-07-06T02:10:10.573Z,0
2018-07-06T02:10:51.048Z,0
2018-07-06T02:11:31.569Z,0
2018-07-06T02:12:12.869Z,0
2018-07-06T02:12:53.351Z,0
2018-07-06T02:13:34.598Z,0
2018-07-06T02:14:15.069Z,0
2018-07-06T02:14:55.595Z,0
2018-07-06T02:15:36.127Z,0
2018-07-06T02:16:16.617Z,0
2018-07-06T02:16:57.577Z,0
2018-07-06T02:17:38.097Z,0
2018-07-06T02:18:19.534Z,0
2018-07-06T02:19:00.032Z,0
2018-07-06T02:19:40.572Z,0
2018-07-06T02:20:21.591Z,0
2018-07-06T02:21:02.128Z,0
2018-07-06T02:21:43.368Z,0
2018-07-06T02:22:23.878Z,0
2018-07-06T02:23:04.369Z,0
2018-07-06T02:23:45.788Z,0
2018-07-06T02:24:26.286Z,0
2018-07-06T02:25:06.786Z,0
2018-07-06T02:25:47.249Z,0
2018-07-06T02:26:27.729Z,0
2018-07-06T02:27:08.258Z,0
2018-07-06T02:27:48.715Z,0
2018-07-06T02:28:29.203Z,0
2018-07-06T02:29:09.721Z,0
2018-07-06T02:29:50.184Z,0
2018-07-06T02:30:30.664Z,0
2018-07-06T02:31:11.168Z,0
2018-07-06T02:31:51.705Z,0
2018-07-06T02:32:32.184Z,0
2018-07-06T02:33:12.704Z,0
2018-07-06T02:33:53.147Z,0
2018-07-06T02:34:33.678Z,0
2018-07-06T02:35:14.168Z,0
2018-07-06T02:35:54.686Z,0
2018-07-06T02:36:35.163Z,0
2018-07-06T02:37:15.670Z,0
2018-07-06T02:37:56.152Z,0
2018-07-06T02:38:37.231Z,0
2018-07-06T02:39:17.735Z,0
2018-07-06T02:39:58.209Z,0
2018-07-06T02:40:38.760Z,0
2018-07-06T02:41:19.238Z,0
2018-07-06T02:41:59.758Z,0
2018-07-06T02:42:40.238Z,0
2018-07-06T02:43:21.429Z,0
2018-07-06T02:44:02.861Z,0
2018-07-06T02:44:43.411Z,0
2018-07-06T02:45:23.896Z,0
2018-07-06T02:46:04.405Z,0
2018-07-06T02:46:44.915Z,0
2018-07-06T02:47:25.400Z,0
2018-07-06T02:48:05.916Z,0
2018-07-06T02:48:46.425Z,0
2018-07-06T02:49:26.952Z,0
2018-07-06T02:50:08.039Z,0
2018-07-06T02:50:48.502Z,0
2018-07-06T02:51:29.013Z,0
2018-07-06T02:52:09.519Z,0
2018-07-06T02:52:50.000Z,0
2018-07-06T02:53:30.518Z,0
2018-07-06T02:54:11.007Z,0
2018-07-06T02:54:51.497Z,0
2018-07-06T02:55:31.995Z,0
2018-07-06T02:56:13.209Z,0
2018-07-06T02:56:54.222Z,0
2018-07-06T02:57:36.409Z,0
2018-07-06T02:58:16.928Z,0
2018-07-06T02:58:58.330Z,0
2018-07-06T02:59:38.807Z,0
2018-07-06T03:00:19.329Z,0
2018-07-06T03:01:00.407Z,0
2018-07-06T03:01:40.912Z,0
2018-07-06T03:02:21.443Z,0
2018-07-06T03:03:02.819Z,0
2018-07-06T03:03:44.219Z,0
2018-07-06T03:04:24.705Z,0
2018-07-06T03:05:05.228Z,0
2018-07-06T03:05:45.702Z,0
2018-07-06T03:06:26.231Z,0
2018-07-06T03:07:07.722Z,0
2018-07-06T03:07:48.207Z,0
2018-07-06T03:08:28.692Z,0
2018-07-06T03:09:09.204Z,0
2018-07-06T03:09:51.545Z,0
2018-07-06T03:10:32.016Z,4
2018-07-06T03:11:12.548Z,4
2018-07-06T03:11:53.049Z,4
2018-07-06T03:12:33.514Z,4
2018-07-06T03:13:14.008Z,4
2018-07-06T03:13:55.128Z,0
2018-07-06T03:14:35.638Z,0
2018-07-06T03:15:16.126Z,0
2018-07-06T03:15:58.098Z,0
2018-07-06T03:16:38.608Z,4
2018-07-06T03:17:19.152Z,4
2018-07-06T03:17:59.626Z,4
2018-07-06T03:18:40.141Z,4
2018-07-06T03:19:20.609Z,4
2018-07-06T03:20:01.179Z,4
2018-07-06T03:20:41.631Z,4
2018-07-06T03:21:22.112Z,4
2018-07-06T03:22:02.602Z,4
2018-07-06T03:22:43.132Z,4
2018-07-06T03:23:23.602Z,4
2018-07-06T03:24:04.209Z,4
2018-07-06T03:24:44.726Z,4
2018-07-06T03:25:25.179Z,4
2018-07-06T03:26:05.663Z,4
2018-07-06T03:26:46.130Z,4
2018-07-06T03:27:26.657Z,4
2018-07-06T03:28:07.269Z,0
2018-07-06T03:28:48.622Z,0
2018-07-06T03:29:28.938Z,4
2018-07-06T03:30:09.436Z,4
2018-07-06T03:30:49.889Z,4
2018-07-06T03:31:30.404Z,4
2018-07-06T03:32:10.915Z,4
2018-07-06T03:32:51.368Z,4
2018-07-06T03:33:31.860Z,4
2018-07-06T03:34:12.364Z,8
2018-07-06T03:34:52.905Z,4
2018-07-06T03:35:34.070Z,4
2018-07-06T03:36:14.531Z,4
2018-07-06T03:36:55.021Z,8
2018-07-06T03:37:35.520Z,8
2018-07-06T03:38:16.038Z,8
2018-07-06T03:38:56.532Z,8
2018-07-06T03:39:37.570Z,8
2018-07-06T03:40:18.064Z,8
2018-07-06T03:40:58.598Z,12
2018-07-06T03:41:39.072Z,12
2018-07-06T03:42:19.595Z,16
2018-07-06T03:43:00.043Z,16
2018-07-06T03:43:40.561Z,20
2018-07-06T03:44:21.053Z,20
2018-07-06T03:45:01.549Z,24
2018-07-06T03:45:42.030Z,24
2018-07-06T03:46:22.542Z,24
2018-07-06T03:47:03.769Z,28
2018-07-06T03:47:44.262Z,32
2018-07-06T03:48:24.768Z,32
2018-07-06T03:49:05.269Z,32
2018-07-06T03:49:45.732Z,32
2018-07-06T03:50:26.261Z,32
2018-07-06T03:51:06.731Z,32
2018-07-06T03:51:47.215Z,32
2018-07-06T03:52:27.716Z,32
2018-07-06T03:53:08.256Z,32
2018-07-06T03:53:48.770Z,32
2018-07-06T03:54:29.224Z,36
2018-07-06T03:55:09.724Z,32
2018-07-06T03:55:50.226Z,36
2018-07-06T03:56:30.812Z,36
2018-07-06T03:57:11.320Z,40
2018-07-06T03:57:51.801Z,44
2018-07-06T03:58:32.304Z,44
2018-07-06T03:59:12.842Z,48
2018-07-06T03:59:53.321Z,48
2018-07-06T04:00:33.830Z,52
2018-07-06T04:01:14.976Z,52
2018-07-06T04:01:55.476Z,52
2018-07-06T04:02:35.924Z,56
2018-07-06T04:03:16.471Z,56
2018-07-06T04:03:56.919Z,60
2018-07-06T04:04:37.443Z,64
2018-07-06T04:05:17.997Z,68
2018-07-06T04:05:58.480Z,72
2018-07-06T04:06:39.000Z,76
2018-07-06T04:07:20.048Z,84
2018-07-06T04:08:00.575Z,88
2018-07-06T04:08:41.950Z,100
2018-07-06T04:09:22.419Z,104
2018-07-06T04:10:02.891Z,108
2018-07-06T04:10:44.940Z,116
2018-07-06T04:11:25.433Z,120
2018-07-06T04:12:05.979Z,120
2018-07-06T04:12:46.477Z,120
2018-07-06T04:13:26.967Z,120
2018-07-06T04:14:07.434Z,120
2018-07-06T04:14:47.937Z,120
2018-07-06T04:15:28.430Z,132
2018-07-06T04:16:09.877Z,140
2018-07-06T04:16:50.288Z,148
2018-07-06T04:17:30.781Z,168
2018-07-06T04:18:11.277Z,180
2018-07-06T04:18:51.766Z,196
2018-07-06T04:19:32.264Z,212
2018-07-06T04:20:12.792Z,224
2018-07-06T04:20:53.307Z,240
2018-07-06T04:21:33.803Z,252
2018-07-06T04:22:14.294Z,264
2018-07-06T04:22:54.822Z,276
2018-07-06T04:23:35.290Z,296
2018-07-06T04:24:15.773Z,316
2018-07-06T04:24:56.215Z,324
2018-07-06T04:25:37.590Z,340
2018-07-06T04:26:18.652Z,368
2018-07-06T04:26:59.161Z,376
2018-07-06T04:27:39.652Z,388
2018-07-06T04:28:20.168Z,404
2018-07-06T04:29:00.647Z,452
2018-07-06T04:29:41.132Z,432
2018-07-06T04:30:21.618Z,456
2018-07-06T04:31:02.106Z,448
2018-07-06T04:31:42.675Z,452
2018-07-06T04:32:23.154Z,428
2018-07-06T04:33:03.617Z,416
2018-07-06T04:33:44.931Z,408
2018-07-06T04:34:25.434Z,384
2018-07-06T04:35:05.947Z,372
2018-07-06T04:35:46.439Z,384
2018-07-06T04:36:26.915Z,388
2018-07-06T04:37:07.415Z,400
2018-07-06T04:37:47.917Z,400
2018-07-06T04:38:28.443Z,400
2018-07-06T04:39:08.961Z,408
2018-07-06T04:39:49.461Z,412
2018-07-06T04:40:29.949Z,428
2018-07-06T04:41:10.457Z,432
2018-07-06T04:41:50.908Z,432
2018-07-06T04:42:31.416Z,436
2018-07-06T04:43:11.927Z,440
2018-07-06T04:43:52.971Z,436
2018-07-06T04:44:33.405Z,428
2018-07-06T04:45:13.929Z,428
2018-07-06T04:45:55.351Z,436
2018-07-06T04:46:35.782Z,444
2018-07-06T04:47:16.247Z,464
2018-07-06T04:47:56.769Z,480
2018-07-06T04:48:37.329Z,508
2018-07-06T04:49:18.377Z,528
2018-07-06T04:49:58.894Z,568
2018-07-06T04:50:39.408Z,604
2018-07-06T04:51:19.902Z,640
2018-07-06T04:52:00.393Z,680
2018-07-06T04:52:41.882Z,712
2018-07-06T04:53:22.392Z,728
2018-07-06T04:54:02.964Z,716
2018-07-06T04:54:43.411Z,748
2018-07-06T04:55:23.938Z,748
2018-07-06T04:56:04.480Z,748
2018-07-06T04:56:45.020Z,744
2018-07-06T04:57:25.569Z,728
2018-07-06T04:58:06.056Z,720
2018-07-06T04:58:46.549Z,720
2018-07-06T04:59:27.070Z,720
2018-07-06T05:00:07.517Z,776
2018-07-06T05:00:48.044Z,792
2018-07-06T05:01:28.591Z,776
2018-07-06T05:02:09.077Z,780
2018-07-06T05:02:49.655Z,800
2018-07-06T05:03:30.129Z,804
2018-07-06T05:04:10.678Z,760
2018-07-06T05:04:52.100Z,712
2018-07-06T05:05:32.643Z,704
2018-07-06T05:06:13.187Z,652
2018-07-06T05:06:53.644Z,620
2018-07-06T05:07:34.920Z,640
2018-07-06T05:08:15.389Z,652
2018-07-06T05:08:55.900Z,660
2018-07-06T05:09:36.427Z,672
2018-07-06T05:10:16.934Z,672
2018-07-06T05:10:57.429Z,712
2018-07-06T05:11:37.943Z,704
2018-07-06T05:12:18.398Z,668
2018-07-06T05:12:58.904Z,676
2018-07-06T05:13:39.381Z,704
2018-07-06T05:14:19.905Z,700
2018-07-06T05:15:00.389Z,800
2018-07-06T05:15:40.876Z,828
2018-07-06T05:16:21.433Z,856
2018-07-06T05:17:03.959Z,792
2018-07-06T05:17:44.419Z,828
2018-07-06T05:18:24.951Z,912
2018-07-06T05:19:05.461Z,888
2018-07-06T05:19:45.937Z,880
2018-07-06T05:20:26.500Z,900
2018-07-06T05:21:07.056Z,840
2018-07-06T05:21:47.592Z,812
2018-07-06T05:22:28.195Z,904
2018-07-06T05:23:09.276Z,880
2018-07-06T05:23:50.425Z,944
2018-07-06T05:24:31.091Z,904
2018-07-06T05:25:11.485Z,1044
2018-07-06T05:25:51.989Z,1128
2018-07-06T05:26:33.097Z,1068
2018-07-06T05:27:13.674Z,936
2018-07-06T05:27:54.169Z,1132
2018-07-06T05:28:34.703Z,1116
2018-07-06T05:29:15.189Z,1156
2018-07-06T05:29:55.986Z,1108
2018-07-06T05:30:36.471Z,1072
2018-07-06T05:31:16.982Z,1040
2018-07-06T05:31:57.717Z,1100
2018-07-06T05:32:38.196Z,1208
2018-07-06T05:33:18.713Z,1212
2018-07-06T05:33:59.187Z,1252
2018-07-06T05:34:39.666Z,1208
2018-07-06T05:35:20.226Z,1180
2018-07-06T05:36:00.853Z,1272
2018-07-06T05:36:41.384Z,1332
2018-07-06T05:37:23.435Z,1320
2018-07-06T05:38:04.969Z,1336
2018-07-06T05:38:46.449Z,1372
2018-07-06T05:39:26.901Z,1420
2018-07-06T05:40:07.435Z,1440
2018-07-06T05:40:48.012Z,1460
2018-07-06T05:41:28.631Z,1312
2018-07-06T05:42:09.157Z,1340
2018-07-06T05:42:49.980Z,1432
2018-07-06T05:43:30.534Z,1552
2018-07-06T05:44:11.058Z,1592
2018-07-06T05:44:51.652Z,1756
2018-07-06T05:45:32.139Z,1632
2018-07-06T05:46:12.631Z,1616
2018-07-06T05:46:53.250Z,1572
2018-07-06T05:47:34.539Z,1584
2018-07-06T05:48:15.169Z,1732
2018-07-06T05:48:56.415Z,1660
2018-07-06T05:49:37.413Z,1660
2018-07-06T05:50:17.993Z,1600
2018-07-06T05:50:58.581Z,1912
2018-07-06T05:51:39.289Z,1828
2018-07-06T05:52:19.774Z,1984
2018-07-06T05:53:00.292Z,1884
2018-07-06T05:53:40.802Z,1960
2018-07-06T05:54:21.269Z,1936
2018-07-06T05:55:01.813Z,2052
2018-07-06T05:55:42.352Z,2184
2018-07-06T05:56:22.885Z,2372
2018-07-06T05:57:03.346Z,2084
2018-07-06T05:57:43.840Z,2084
2018-07-06T05:58:24.299Z,2076
2018-07-06T05:59:04.881Z,1960
2018-07-06T05:59:45.524Z,1852
2018-07-06T06:00:25.965Z,1832
2018-07-06T06:01:06.463Z,1852
2018-07-06T06:01:47.002Z,1828
2018-07-06T06:02:27.475Z,1752
2018-07-06T06:03:08.111Z,1752
2018-07-06T06:03:48.873Z,1820
2018-07-06T06:04:29.516Z,1896
2018-07-06T06:05:09.896Z,1924
2018-07-06T06:05:50.706Z,1780
2018-07-06T06:06:31.250Z,1924
2018-07-06T06:07:11.803Z,1868
2018-07-06T06:07:52.329Z,1980
2018-07-06T06:08:32.791Z,1976
2018-07-06T06:09:14.286Z,2160
2018-07-06T06:09:54.798Z,2376
2018-07-06T06:10:35.421Z,2616
2018-07-06T06:11:15.948Z,2600
2018-07-06T06:11:56.593Z,2740
2018-07-06T06:12:37.190Z,3096
2018-07-06T06:13:18.450Z,3284
2018-07-06T06:13:59.116Z,3192
2018-07-06T06:14:39.591Z,3444
2018-07-06T06:15:20.224Z,3568
2018-07-06T06:16:00.721Z,3672
2018-07-06T06:16:41.234Z,3708
2018-07-06T06:17:22.435Z,3656
2018-07-06T06:18:03.894Z,3676
2018-07-06T06:18:45.069Z,3728
2018-07-06T06:19:25.508Z,3788
2018-07-06T06:20:06.051Z,3788
2018-07-06T06:20:46.528Z,3612
2018-07-06T06:21:27.118Z,3596
2018-07-06T06:22:07.699Z,3856
2018-07-06T06:22:48.657Z,4076
2018-07-06T06:23:29.122Z,4352
2018-07-06T06:24:09.665Z,4636
2018-07-06T06:24:50.240Z,5224
2018-07-06T06:25:30.778Z,5840
2018-07-06T06:26:11.223Z,6244
2018-07-06T06:26:52.598Z,6404
2018-07-06T06:27:33.111Z,6848
2018-07-06T06:28:13.630Z,7772
2018-07-06T06:28:55.047Z,8304
2018-07-06T06:29:36.977Z,7160
2018-07-06T06:30:18.153Z,8132
2018-07-06T06:30:58.784Z,8300
2018-07-06T06:31:39.310Z,9160
2018-07-06T06:32:19.701Z,8372
2018-07-06T06:33:00.296Z,8376
2018-07-06T06:33:40.899Z,8808
2018-07-06T06:34:21.289Z,9712
2018-07-06T06:35:01.703Z,9224
2018-07-06T06:35:42.277Z,9056
2018-07-06T06:36:22.740Z,7704
2018-07-06T06:37:03.241Z,6708
2018-07-06T06:37:43.774Z,5884
2018-07-06T06:38:24.304Z,5644
2018-07-06T06:39:04.712Z,6064
2018-07-06T06:39:45.263Z,6028
2018-07-06T06:40:25.762Z,5808
2018-07-06T06:41:06.288Z,6964
2018-07-06T06:41:46.766Z,7900
2018-07-06T06:42:27.303Z,7712
2018-07-06T06:43:07.813Z,7816
2018-07-06T06:43:48.286Z,7220
2018-07-06T06:44:28.952Z,6092
2018-07-06T06:45:10.384Z,6684
2018-07-06T06:45:51.818Z,7696
2018-07-06T06:46:32.350Z,7592
2018-07-06T06:47:12.815Z,6380
2018-07-06T06:47:54.296Z,6108
2018-07-06T06:48:34.756Z,5776
2018-07-06T06:49:15.263Z,6032
2018-07-06T06:49:55.769Z,5416
2018-07-06T06:50:36.242Z,5232
2018-07-06T06:51:16.794Z,5644
2018-07-06T06:51:57.294Z,5840
2018-07-06T06:52:37.804Z,6100
2018-07-06T06:53:18.313Z,5316
2018-07-06T06:53:58.773Z,5304
2018-07-06T06:54:39.256Z,4916
2018-07-06T06:55:19.770Z,5564
2018-07-06T06:56:01.091Z,5680
2018-07-06T06:56:42.461Z,6056
2018-07-06T06:57:22.994Z,6256
2018-07-06T06:58:03.426Z,7512
2018-07-06T06:58:43.938Z,7572
2018-07-06T06:59:25.193Z,7896
2018-07-06T07:00:05.658Z,8004
2018-07-06T07:00:46.196Z,7564
2018-07-06T07:01:27.458Z,8128
2018-07-06T07:02:07.961Z,8080
2018-07-06T07:02:48.638Z,7676
2018-07-06T07:03:29.923Z,7720
2018-07-06T07:04:10.399Z,7412
2018-07-06T07:04:50.878Z,7480
2018-07-06T07:05:31.406Z,7368
2018-07-06T07:06:11.913Z,7028
2018-07-06T07:06:52.474Z,7004
2018-07-06T07:07:32.989Z,6456
2018-07-06T07:08:13.463Z,7508
2018-07-06T07:08:53.900Z,8284
2018-07-06T07:09:34.417Z,9112
2018-07-06T07:10:14.908Z,9248
2018-07-06T07:10:55.395Z,8492
2018-07-06T07:11:36.688Z,9044
2018-07-06T07:12:17.180Z,10104
2018-07-06T07:12:57.677Z,9824
2018-07-06T07:13:38.338Z,9424
2018-07-06T07:14:18.782Z,10100
2018-07-06T07:14:59.288Z,9560
2018-07-06T07:15:39.766Z,10072
2018-07-06T07:16:20.299Z,9616
2018-07-06T07:17:01.523Z,9432
2018-07-06T07:17:42.063Z,9904
2018-07-06T07:18:22.603Z,10272
2018-07-06T07:19:03.071Z,9408
2018-07-06T07:19:43.587Z,8544
2018-07-06T07:20:24.135Z,8504
2018-07-06T07:21:04.597Z,9188
2018-07-06T07:21:45.149Z,10268
2018-07-06T07:22:26.305Z,10576
2018-07-06T07:23:10.447Z,9952
2018-07-06T07:23:50.957Z,9128
2018-07-06T07:24:31.490Z,9820
2018-07-06T07:25:11.998Z,9064
2018-07-06T07:25:52.461Z,8324
2018-07-06T07:26:32.951Z,8084
2018-07-06T07:29:06.840Z,9076
2018-07-06T07:29:47.354Z,9656
2018-07-06T07:30:27.887Z,9992
2018-07-06T07:31:08.341Z,10500
2018-07-06T07:31:48.910Z,10692
2018-07-06T07:32:29.368Z,10940
2018-07-06T07:33:09.947Z,11068
2018-07-06T07:33:51.173Z,11520
2018-07-06T07:34:31.879Z,11576
2018-07-06T07:35:12.831Z,11704
2018-07-06T07:35:53.353Z,11944
2018-07-06T07:36:33.856Z,11632
2018-07-06T07:37:14.403Z,10292
2018-07-06T07:37:54.898Z,9388
2018-07-06T07:38:35.439Z,8820
2018-07-06T07:39:15.934Z,8392
2018-07-06T07:39:56.459Z,7948
2018-07-06T07:40:36.884Z,8112
2018-07-06T07:41:17.442Z,8620
2018-07-06T07:41:57.864Z,8816
2018-07-06T07:42:38.419Z,9196
2018-07-06T07:43:18.954Z,8684
2018-07-06T07:43:59.497Z,7792
2018-07-06T07:44:39.980Z,7780
2018-07-06T07:45:20.453Z,8768
2018-07-06T07:46:00.969Z,8840
2018-07-06T07:46:41.489Z,8744
2018-07-06T07:47:21.988Z,8668
2018-07-06T07:48:02.497Z,8676
2018-07-06T07:48:43.698Z,8448
2018-07-06T07:49:24.205Z,7552
2018-07-06T07:50:04.696Z,7172
2018-07-06T07:50:45.341Z,7308
2018-07-06T07:51:26.811Z,7568
2018-07-06T07:52:07.319Z,7388
2018-07-06T07:52:47.786Z,6920
2018-07-06T07:53:28.318Z,6632
2018-07-06T07:54:08.881Z,6464
2018-07-06T07:54:49.394Z,6748
2018-07-06T07:55:29.940Z,6956
2018-07-06T07:56:10.541Z,6852
2018-07-06T07:56:51.043Z,6560
2018-07-06T07:57:31.680Z,6172
2018-07-06T07:58:12.197Z,6176
2018-07-06T07:58:52.683Z,6840
2018-07-06T07:59:33.298Z,7032
2018-07-06T08:00:13.779Z,7008
2018-07-06T08:00:54.395Z,7304
2018-07-06T08:01:34.870Z,7404
2018-07-06T08:02:15.314Z,7300
2018-07-06T08:02:55.850Z,6680
2018-07-06T08:03:38.344Z,5872
2018-07-06T08:04:18.811Z,5836
2018-07-06T08:04:59.370Z,5864
2018-07-06T08:05:39.843Z,6100
2018-07-06T08:06:20.321Z,6192
2018-07-06T08:07:00.888Z,6228
2018-07-06T08:07:41.357Z,6008
2018-07-06T08:08:21.836Z,6188
2018-07-06T08:09:02.357Z,5252
2018-07-06T08:09:42.889Z,4772
2018-07-06T08:10:23.379Z,3740
2018-07-06T08:11:03.882Z,3672
2018-07-06T08:11:44.450Z,3572
2018-07-06T08:12:25.136Z,3480
2018-07-06T08:13:05.600Z,3440
2018-07-06T08:13:46.078Z,3596
2018-07-06T08:14:26.653Z,4008
2018-07-06T08:15:07.800Z,4624
2018-07-06T08:15:48.311Z,5136
2018-07-06T08:16:28.941Z,5560
2018-07-06T08:17:10.267Z,5872
2018-07-06T08:17:50.226Z,5836
2018-07-06T08:18:30.716Z,5816
2018-07-06T08:19:11.255Z,6200
2018-07-06T08:19:51.814Z,6712
2018-07-06T08:20:32.340Z,6948
2018-07-06T08:21:13.419Z,7188
2018-07-06T08:21:54.008Z,6948
2018-07-06T08:22:34.517Z,6796
2018-07-06T08:23:15.028Z,6696
2018-07-06T08:23:55.933Z,6760
2018-07-06T08:24:36.472Z,7024
2018-07-06T08:25:16.961Z,7468
2018-07-06T08:25:57.524Z,8168
2018-07-06T08:26:38.038Z,9296
2018-07-06T08:27:18.468Z,9536
2018-07-06T08:27:59.030Z,9508
2018-07-06T08:28:40.566Z,9496
2018-07-06T08:29:21.118Z,9508
2018-07-06T08:30:01.711Z,9588
2018-07-06T08:30:42.305Z,9532
2018-07-06T08:31:22.809Z,9440
2018-07-06T08:32:03.404Z,9248
2018-07-06T08:32:43.875Z,9476
2018-07-06T08:33:24.355Z,9432
2018-07-06T08:34:04.861Z,9536
2018-07-06T08:34:45.359Z,9848
2018-07-06T08:35:25.904Z,9960
2018-07-06T08:36:06.461Z,10076
2018-07-06T08:36:48.639Z,10172
2018-07-06T08:37:29.116Z,10148
2018-07-06T08:38:09.635Z,9764
2018-07-06T08:38:50.134Z,9508
2018-07-06T08:39:31.344Z,8580
2018-07-06T08:40:11.848Z,8400
2018-07-06T08:40:52.314Z,8352
2018-07-06T08:41:32.765Z,8164
2018-07-06T08:42:13.321Z,7960
2018-07-06T08:42:53.792Z,7520
2018-07-06T08:43:34.330Z,7308
2018-07-06T08:44:14.841Z,7300
2018-07-06T08:44:55.404Z,7412
2018-07-06T08:45:36.691Z,7524
2018-07-06T08:46:17.211Z,7544
2018-07-06T08:46:57.675Z,7648
2018-07-06T08:47:38.939Z,8004
2018-07-06T08:48:19.431Z,8408
2018-07-06T08:49:00.060Z,8868
2018-07-06T08:49:40.514Z,9144
2018-07-06T08:50:21.158Z,9140
2018-07-06T08:51:01.695Z,9136
2018-07-06T08:51:42.782Z,9208
2018-07-06T08:52:23.233Z,9308
2018-07-06T08:53:03.754Z,9348
2018-07-06T08:53:44.316Z,9448
2018-07-06T08:54:24.926Z,9248
2018-07-06T08:55:06.340Z,9508
2018-07-06T08:55:46.884Z,9792
2018-07-06T08:56:27.377Z,9944
2018-07-06T08:57:07.895Z,9712
2018-07-06T08:57:48.497Z,9480
2018-07-06T08:58:29.077Z,9120
2018-07-06T08:59:10.151Z,8832
2018-07-06T08:59:50.684Z,8204
2018-07-06T09:00:31.155Z,7548
2018-07-06T09:01:11.652Z,6916
2018-07-06T09:01:52.097Z,6476
2018-07-06T09:02:32.607Z,6172
2018-07-06T09:03:13.144Z,5572
2018-07-06T09:03:53.651Z,5288
2018-07-06T09:04:34.301Z,5228
2018-07-06T09:05:14.619Z,5296
2018-07-06T09:05:55.213Z,5464
2018-07-06T09:06:35.709Z,5820
2018-07-06T09:07:16.279Z,6324
2018-07-06T09:07:56.666Z,7032
2018-07-06T09:08:37.991Z,7072
2018-07-06T09:09:18.534Z,7204
2018-07-06T09:09:59.767Z,7144
2018-07-06T09:10:40.197Z,7108
2018-07-06T09:11:20.690Z,7564
2018-07-06T09:12:01.269Z,7776
2018-07-06T09:12:41.696Z,8320
2018-07-06T09:13:22.936Z,9036
2018-07-06T09:14:03.568Z,9352
2018-07-06T09:14:44.073Z,9548
2018-07-06T09:15:24.592Z,9652
2018-07-06T09:16:05.106Z,9724
2018-07-06T09:16:45.610Z,9776
2018-07-06T09:17:26.109Z,9880
2018-07-06T09:18:06.616Z,9816
2018-07-06T09:18:47.176Z,9476
2018-07-06T09:19:27.723Z,9420
2018-07-06T09:20:08.542Z,9228
2018-07-06T09:20:49.720Z,8696
2018-07-06T09:21:31.104Z,8236
2018-07-06T09:22:11.816Z,7896
2018-07-06T09:22:53.546Z,7584
2018-07-06T09:23:34.907Z,7416
2018-07-06T09:24:15.321Z,7280
2018-07-06T09:24:55.964Z,7228
2018-07-06T09:25:37.548Z,7180
2018-07-06T09:26:18.018Z,7224
2018-07-06T09:26:58.982Z,7340
2018-07-06T09:27:39.492Z,7456
2018-07-06T09:28:19.936Z,7568
2018-07-06T09:29:00.443Z,7472